Time;durP1;ratioP1;P1;durP2;ratioP2;P2;SDS_P1;SDS_P2;PMS_P1;PMS_P2;Temp;Humidity;BMP_temperature;BMP_pressure;BME280_temperature;BME280_humidity;BME280_pressure;Samples;Min_cycle;Max_cycle;Signal;HPM_P1;HPM_P2
2023/07/28 00:01:30;;;;;;;7.75;5.47;;;;;;;18.68;93.05;100428.75;5021399;28;20034;-86
2023/07/28 00:03:55;;;;;;;6.00;5.40;;;;;;;18.71;93.10;100427.69;5021689;28;20045;-85
2023/07/28 00:06:21;;;;;;;6.97;5.55;;;;;;;18.75;92.50;100429.16;5020655;28;20033;-86
2023/07/28 00:08:46;;;;;;;6.25;5.55;;;;;;;18.73;92.53;100418.53;5020609;28;20033;-86
2023/07/28 00:11:13;;;;;;;6.22;5.43;;;;;;;18.76;92.34;100420.97;5021105;28;20034;-87
2023/07/28 00:13:39;;;;;;;6.72;6.00;;;;;;;18.76;92.44;100420.97;5017783;28;20115;-86
2023/07/28 00:16:05;;;;;;;6.10;5.40;;;;;;;18.75;92.41;100419.28;5023066;28;20477;-86
2023/07/28 00:18:30;;;;;;;6.00;5.40;;;;;;;18.74;92.32;100414.88;5028513;28;20039;-85
2023/07/28 00:20:55;;;;;;;6.00;5.35;;;;;;;18.71;92.19;100420.50;5025638;28;20520;-86
2023/07/28 00:23:21;;;;;;;5.97;5.38;;;;;;;18.74;92.96;100416.72;5019464;28;20025;-86
2023/07/28 00:25:46;;;;;;;6.32;5.65;;;;;;;18.72;92.60;100421.34;5020085;28;20419;-86
2023/07/28 00:28:11;;;;;;;5.78;4.93;;;;;;;18.67;92.66;100415.50;5026008;28;20052;-86
2023/07/28 00:30:37;;;;;;;8.48;5.60;;;;;;;18.70;93.11;100418.81;5016994;28;20044;-86
2023/07/28 00:33:02;;;;;;;6.70;6.00;;;;;;;18.69;93.24;100410.88;5023537;28;20029;-86
2023/07/28 00:35:27;;;;;;;5.57;5.03;;;;;;;18.67;92.46;100412.81;5021864;28;20525;-86
2023/07/28 00:37:52;;;;;;;6.03;5.43;;;;;;;18.65;93.43;100412.91;5031360;28;20030;-87
2023/07/28 00:40:18;;;;;;;7.50;5.95;;;;;;;18.74;92.70;100414.03;5028738;28;20543;-88
2023/07/28 00:42:43;;;;;;;5.68;5.13;;;;;;;18.74;91.84;100404.16;5023499;28;20358;-86
2023/07/28 00:45:08;;;;;;;6.68;5.47;;;;;;;18.72;92.55;100403.44;5015114;28;20706;-87
2023/07/28 00:47:35;;;;;;;7.15;6.45;;;;;;;18.68;93.08;100401.13;5044578;28;20033;-87
2023/07/28 00:50:01;;;;;;;6.47;5.70;;;;;;;18.69;92.86;100400.16;5020134;28;20028;-87
2023/07/28 00:52:26;;;;;;;8.27;6.40;;;;;;;18.67;92.75;100405.63;5021560;28;20029;-86
2023/07/28 00:54:52;;;;;;;8.05;5.85;;;;;;;18.68;93.12;100398.44;5017060;28;20022;-85
2023/07/28 00:57:18;;;;;;;7.07;6.07;;;;;;;18.69;92.76;100398.34;5015599;28;20037;-87
2023/07/28 00:59:45;;;;;;;9.90;6.93;;;;;;;18.69;93.06;100401.00;5015525;28;20023;-87
2023/07/28 01:02:10;;;;;;;8.00;6.13;;;;;;;18.74;92.65;100408.66;5020011;28;20399;-86
2023/07/28 01:04:35;;;;;;;7.18;6.00;;;;;;;18.73;92.23;100405.16;5013924;28;20080;-87
2023/07/28 01:07:22;;;;;;;7.90;7.10;;;;;;;18.75;92.64;100403.22;5009626;28;20037;-88
2023/07/28 01:09:56;;;;;;;7.25;6.40;;;;;;;18.67;93.19;100408.31;5021434;28;20029;-88
2023/07/28 01:12:23;;;;;;;7.55;6.63;;;;;;;18.66;93.28;100413.78;5023132;28;20029;-87
2023/07/28 01:14:48;;;;;;;7.60;6.80;;;;;;;18.68;93.50;100419.84;5023904;28;20040;-85
2023/07/28 01:17:14;;;;;;;7.45;6.38;;;;;;;18.67;93.28;100419.00;5013237;28;20029;-87
2023/07/28 01:19:39;;;;;;;11.32;6.80;;;;;;;18.71;93.15;100419.66;5013948;28;20461;-87
2023/07/28 01:22:17;;;;;;;8.15;7.18;;;;;;;18.74;93.33;100424.75;5015794;28;20508;-87
2023/07/28 01:25:08;;;;;;;7.55;6.85;;;;;;;18.82;91.88;100417.78;5041610;28;20367;-87
2023/07/28 01:27:35;;;;;;;9.45;7.03;;;;;;;18.82;92.50;100420.47;5011777;28;20079;-88
2023/07/28 01:30:00;;;;;;;9.50;7.72;;;;;;;18.84;92.51;100428.41;5021144;28;20026;-87
2023/07/28 01:32:26;;;;;;;8.88;7.40;;;;;;;18.86;92.49;100421.94;5021393;28;20030;-87
2023/07/28 01:34:51;;;;;;;7.72;6.88;;;;;;;18.84;92.32;100423.91;5018754;28;20074;-87
2023/07/28 01:37:16;;;;;;;8.02;6.60;;;;;;;18.87;92.45;100420.09;5031315;28;20026;-87
2023/07/28 01:39:42;;;;;;;9.77;7.28;;;;;;;18.86;92.63;100431.78;5021224;28;20025;-87
2023/07/28 01:42:07;;;;;;;7.25;6.38;;;;;;;18.83;92.45;100430.19;5018458;28;20046;-86
2023/07/28 01:44:32;;;;;;;8.75;7.30;;;;;;;18.78;92.62;100431.56;5023207;28;20040;-86
2023/07/28 01:46:57;;;;;;;8.73;7.15;;;;;;;18.78;92.90;100437.75;5016824;28;20029;-87
2023/07/28 01:49:23;;;;;;;10.20;7.38;;;;;;;18.76;92.67;100434.38;5014205;28;20021;-85
2023/07/28 01:51:48;;;;;;;8.65;7.32;;;;;;;18.76;93.09;100434.38;5023804;28;20139;-87
2023/07/28 01:54:13;;;;;;;10.27;8.43;;;;;;;18.73;93.41;100423.03;5022294;28;20061;-87
2023/07/28 01:56:38;;;;;;;9.73;7.63;;;;;;;18.74;93.42;100425.59;5031322;28;20021;-87
2023/07/28 01:59:04;;;;;;;9.07;7.93;;;;;;;18.75;93.41;100429.16;5020663;28;20060;-86
2023/07/28 02:01:29;;;;;;;10.43;8.52;;;;;;;18.72;93.87;100422.19;5027594;28;20030;-86
2023/07/28 02:03:54;;;;;;;8.32;7.10;;;;;;;18.70;93.27;100421.47;5027283;28;20064;-87
2023/07/28 02:06:20;;;;;;;9.23;7.68;;;;;;;18.74;93.28;100425.59;5018542;28;20029;-87
2023/07/28 02:08:45;;;;;;;9.80;7.70;;;;;;;18.75;93.44;100435.34;5030986;28;20472;-87
2023/07/28 02:11:10;;;;;;;9.20;7.43;;;;;;;18.77;93.09;100432.53;5035418;28;20055;-87
2023/07/28 02:13:35;;;;;;;8.98;7.32;;;;;;;18.77;93.07;100429.88;5038735;28;20028;-87
2023/07/28 02:16:01;;;;;;;9.75;8.07;;;;;;;18.77;93.54;100428.03;5028384;28;20476;-86
2023/07/28 02:18:26;;;;;;;10.50;7.68;;;;;;;18.77;92.61;100419.16;5032254;28;20032;-86
2023/07/28 02:20:51;;;;;;;10.35;7.65;;;;;;;18.79;92.59;100420.75;5025102;28;20548;-87
2023/07/28 02:23:16;;;;;;;10.52;7.07;;;;;;;18.79;92.70;100415.38;5034295;28;20029;-87
2023/07/28 02:25:42;;;;;;;11.93;8.00;;;;;;;18.78;92.74;100421.69;5035010;28;20120;-88
2023/07/28 02:28:10;;;;;;;10.45;7.88;;;;;;;18.78;93.04;100421.69;5038951;28;20417;-87
2023/07/28 02:30:35;;;;;;;7.72;6.65;;;;;;;18.82;92.28;100428.50;5033758;28;20706;-87
2023/07/28 02:33:00;;;;;;;11.15;8.38;;;;;;;18.83;92.31;100430.19;5033896;28;20031;-86
2023/07/28 02:35:25;;;;;;;11.15;8.68;;;;;;;18.86;92.50;100429.13;5016599;28;20381;-87
2023/07/28 02:37:51;;;;;;;11.75;8.85;;;;;;;18.85;92.48;100428.28;5020207;28;20021;-87
2023/07/28 02:40:16;;;;;;;10.48;8.32;;;;;;;18.88;92.57;100431.66;5021772;28;20045;-87
2023/07/28 02:42:41;;;;;;;12.57;8.90;;;;;;;18.89;91.76;100433.38;5030413;28;20400;-86
2023/07/28 02:45:07;;;;;;;14.48;9.50;;;;;;;18.88;92.63;100429.81;5011245;28;20022;-86
2023/07/28 02:47:32;;;;;;;13.15;9.00;;;;;;;18.88;92.28;100434.34;5016589;28;20150;-85
2023/07/28 02:49:58;;;;;;;12.45;9.15;;;;;;;18.91;92.01;100431.41;5023896;28;20055;-86
2023/07/28 02:52:23;;;;;;;13.75;9.80;;;;;;;18.91;91.93;100436.78;5022469;28;20033;-87
2023/07/28 02:54:50;;;;;;;15.77;9.68;;;;;;;18.92;92.22;100442.00;5015411;28;20851;-86
2023/07/28 02:57:15;;;;;;;13.10;9.10;;;;;;;18.90;91.88;100440.44;5023664;28;20060;-87
2023/07/28 02:59:40;;;;;;;14.05;10.50;;;;;;;18.92;91.91;100443.84;5022679;28;20457;-87
2023/07/28 03:02:05;;;;;;;14.13;9.95;;;;;;;18.92;91.49;100444.69;5016798;28;20112;-86
2023/07/28 03:04:31;;;;;;;16.63;11.00;;;;;;;18.93;91.74;100441.06;5020265;28;20087;-87
2023/07/28 03:06:56;;;;;;;13.95;9.10;;;;;;;18.92;91.12;100444.69;5026615;28;20064;-86
2023/07/28 03:09:21;;;;;;;16.33;10.75;;;;;;;18.94;91.83;100444.56;5032701;28;20048;-87
2023/07/28 03:11:47;;;;;;;19.85;11.25;;;;;;;18.93;91.64;100451.75;5019899;28;20120;-87
2023/07/28 03:14:12;;;;;;;16.05;10.30;;;;;;;18.94;91.60;100449.94;5025138;28;20035;-87
2023/07/28 03:16:38;;;;;;;15.52;10.18;;;;;;;18.92;92.02;100447.34;5024240;28;20025;-86
2023/07/28 03:19:03;;;;;;;14.35;9.75;;;;;;;18.98;90.60;100451.34;5036907;28;20031;-86
2023/07/28 03:21:31;;;;;;;19.15;11.77;;;;;;;18.85;91.92;100444.34;5016290;28;20396;-87
2023/07/28 03:23:57;;;;;;;20.08;11.68;;;;;;;18.88;92.50;100443.22;5021129;28;20021;-87
2023/07/28 03:26:22;;;;;;;15.52;11.05;;;;;;;18.80;92.64;100451.06;5031121;28;20099;-86
2023/07/28 03:28:47;;;;;;;15.75;10.98;;;;;;;18.82;91.78;100443.72;5025027;28;20496;-86
2023/07/28 03:31:13;;;;;;;16.60;11.00;;;;;;;18.77;92.98;100456.66;5021695;28;20021;-86
2023/07/28 03:33:38;;;;;;;17.77;11.48;;;;;;;18.77;92.76;100453.97;5019289;28;20536;-86
2023/07/28 03:36:03;;;;;;;18.48;11.95;;;;;;;18.78;92.55;100464.53;5032915;28;20035;-87
2023/07/28 03:38:28;;;;;;;19.13;12.25;;;;;;;18.83;92.75;100457.00;5020768;28;20032;-87
2023/07/28 03:40:54;;;;;;;20.00;12.63;;;;;;;18.94;91.96;100458.81;5024140;28;20083;-85
2023/07/28 03:43:20;;;;;;;17.60;12.05;;;;;;;18.82;92.58;100465.16;5022981;28;20044;-87
2023/07/28 03:45:45;;;;;;;20.38;12.45;;;;;;;18.95;92.25;100467.69;5024258;28;20476;-87
2023/07/28 03:48:11;;;;;;;19.48;12.52;;;;;;;19.05;91.51;100471.34;5031616;28;20064;-87
2023/07/28 03:50:36;;;;;;;19.88;12.90;;;;;;;19.10;91.21;100469.97;5031631;28;20095;-86
2023/07/28 03:53:01;;;;;;;17.67;12.05;;;;;;;18.85;92.25;100473.81;5016855;28;20060;-87
2023/07/28 03:55:26;;;;;;;20.25;12.18;;;;;;;18.83;91.81;100481.09;5021022;28;20393;-86
2023/07/28 03:57:52;;;;;;;19.45;12.15;;;;;;;18.83;92.48;100480.25;5031272;28;20033;-87
2023/07/28 04:00:17;;;;;;;23.67;13.07;;;;;;;18.85;92.41;100473.81;5020721;28;20033;-87
2023/07/28 04:02:42;;;;;;;20.88;12.40;;;;;;;18.83;92.34;100473.06;5028497;28;20040;-87
2023/07/28 04:05:08;;;;;;;21.95;12.82;;;;;;;18.88;92.46;100471.84;5025946;28;20388;-87
2023/07/28 04:07:33;;;;;;;22.75;14.10;;;;;;;18.92;92.45;100481.34;5029998;28;20038;-86
2023/07/28 04:09:58;;;;;;;20.98;12.68;;;;;;;18.89;92.35;100477.09;5024652;28;20021;-87
2023/07/28 04:12:23;;;;;;;18.50;11.93;;;;;;;18.90;92.12;100480.63;5027439;28;20558;-86
2023/07/28 04:14:49;;;;;;;20.80;12.60;;;;;;;18.92;91.97;100486.69;5022804;28;20032;-87
2023/07/28 04:17:14;;;;;;;21.27;12.23;;;;;;;18.95;92.27;100487.31;5020845;28;20026;-86
2023/07/28 04:19:39;;;;;;;23.10;13.35;;;;;;;18.93;92.36;100477.66;5024157;28;20038;-87
2023/07/28 04:22:05;;;;;;;25.67;14.18;;;;;;;18.92;92.49;100482.19;5021842;28;20059;-87
2023/07/28 04:24:30;;;;;;;25.08;14.27;;;;;;;18.84;92.14;100482.81;5019527;28;20026;-86
2023/07/28 04:26:57;;;;;;;21.33;12.50;;;;;;;18.91;91.19;100476.97;5030969;28;20026;-87
2023/07/28 04:29:22;;;;;;;21.45;13.50;;;;;;;18.88;92.28;100478.03;5023660;28;20053;-86
2023/07/28 04:31:47;;;;;;;22.08;12.70;;;;;;;18.90;91.95;100477.94;5016105;28;20601;-86
2023/07/28 04:34:12;;;;;;;19.45;12.98;;;;;;;18.90;92.22;100480.63;5010291;28;20041;-87
2023/07/28 04:36:38;;;;;;;19.52;12.63;;;;;;;18.88;92.34;100475.38;5017722;28;20055;-86
2023/07/28 04:39:03;;;;;;;21.77;13.80;;;;;;;18.95;92.18;100468.56;5016144;28;20052;-87
2023/07/28 04:41:28;;;;;;;17.77;12.20;;;;;;;19.02;91.19;100479.59;5017424;28;20041;-86
2023/07/28 04:43:54;;;;;;;23.63;14.23;;;;;;;19.05;91.24;100479.38;5017765;28;20038;-87
2023/07/28 04:46:19;;;;;;;20.33;12.20;;;;;;;18.93;91.89;100477.66;5013233;28;20026;-87
2023/07/28 04:48:45;;;;;;;24.52;13.68;;;;;;;18.98;91.65;100473.66;5013362;28;20493;-87
2023/07/28 04:51:11;;;;;;;20.58;12.50;;;;;;;18.98;91.25;100470.13;5008381;28;20038;-87
2023/07/28 04:53:36;;;;;;;17.65;12.20;;;;;;;19.02;91.01;100476.94;5029827;28;20388;-86
2023/07/28 04:56:03;;;;;;;20.60;12.57;;;;;;;19.05;91.16;100476.69;5024514;28;20036;-87
2023/07/28 04:58:28;;;;;;;21.38;13.63;;;;;;;19.09;91.15;100484.34;5023284;28;20029;-86
2023/07/28 05:00:53;;;;;;;18.02;12.00;;;;;;;19.13;91.02;100482.28;5015346;28;20060;-86
2023/07/28 05:03:19;;;;;;;18.40;12.55;;;;;;;19.15;90.50;100476.78;5023620;28;20484;-86
2023/07/28 05:05:44;;;;;;;19.80;13.75;;;;;;;19.18;91.00;100484.59;5023707;28;20038;-87
2023/07/28 05:08:10;;;;;;;20.13;12.05;;;;;;;19.22;91.29;100478.00;5017389;28;20124;-88
2023/07/28 05:10:35;;;;;;;17.10;11.20;;;;;;;19.29;89.61;100479.19;5018895;28;20056;-87
2023/07/28 05:13:00;;;;;;;26.42;13.52;;;;;;;19.30;90.39;100481.72;5027436;28;20489;-86
2023/07/28 05:15:26;;;;;;;21.73;13.07;;;;;;;19.32;90.34;100487.84;5026469;28;20083;-87
2023/07/28 05:17:51;;;;;;;19.45;13.00;;;;;;;19.38;89.69;100495.34;5024613;28;20025;-86
2023/07/28 05:20:16;;;;;;;21.48;12.80;;;;;;;19.39;89.24;100501.56;5016079;28;20479;-87
2023/07/28 05:22:41;;;;;;;19.42;12.73;;;;;;;19.40;89.38;100502.41;5014181;28;20083;-86
2023/07/28 05:25:07;;;;;;;19.83;12.57;;;;;;;19.44;89.29;100509.22;5019416;28;20025;-87
2023/07/28 05:27:32;;;;;;;20.48;13.90;;;;;;;19.44;89.41;100514.59;5013322;28;20472;-85
2023/07/28 05:29:58;;;;;;;21.60;12.75;;;;;;;19.44;89.52;100514.59;5011973;28;20413;-87
2023/07/28 05:32:23;;;;;;;19.17;12.70;;;;;;;19.39;89.54;100512.28;5012140;28;20029;-86
2023/07/28 05:34:48;;;;;;;18.95;12.90;;;;;;;19.54;88.92;100515.56;5020751;28;20338;-87
2023/07/28 05:37:13;;;;;;;22.48;13.60;;;;;;;19.48;89.14;100522.25;5029714;28;20030;-86
2023/07/28 05:39:39;;;;;;;21.35;13.65;;;;;;;19.41;89.83;100528.28;5022822;28;20416;-87
2023/07/28 05:42:04;;;;;;;19.20;13.18;;;;;;;19.41;89.58;100526.44;5020192;28;20057;-87
2023/07/28 05:44:29;;;;;;;19.70;12.80;;;;;;;19.46;88.81;100520.69;5009233;28;20037;-88
2023/07/28 05:46:55;;;;;;;23.35;13.82;;;;;;;19.32;90.72;100524.50;5011713;28;20060;-87
2023/07/28 05:49:20;;;;;;;20.40;14.13;;;;;;;19.31;91.09;100526.34;5031311;28;20064;-87
2023/07/28 05:51:45;;;;;;;21.67;14.50;;;;;;;19.38;90.34;100532.03;5022343;28;20036;-86
2023/07/28 05:54:14;;;;;;;21.55;14.50;;;;;;;19.44;90.16;100526.16;5015095;28;20384;-87
2023/07/28 05:56:40;;;;;;;22.58;14.10;;;;;;;19.43;90.35;100543.25;5011647;28;20029;-86
2023/07/28 05:59:05;;;;;;;23.67;15.85;;;;;;;19.55;89.08;100544.06;5017863;28;20029;-87
2023/07/28 06:01:31;;;;;;;24.40;16.40;;;;;;;19.62;88.93;100537.25;5023587;28;20021;-87
2023/07/28 06:03:58;;;;;;;28.55;17.88;;;;;;;19.60;89.69;100537.38;5025598;28;20348;-87
2023/07/28 06:06:24;;;;;;;26.10;17.10;;;;;;;19.64;88.01;100542.50;5032636;28;20026;-87
2023/07/28 06:08:49;;;;;;;29.85;18.95;;;;;;;19.64;88.81;100527.25;5030500;28;20507;-86
2023/07/28 06:11:15;;;;;;;31.25;19.25;;;;;;;19.72;89.18;100540.00;5015536;28;20033;-86
2023/07/28 06:13:40;;;;;;;33.42;21.50;;;;;;;19.75;89.04;100545.97;5024810;28;20044;-86
2023/07/28 06:16:05;;;;;;;32.95;21.50;;;;;;;19.76;89.33;100541.47;5023284;28;20469;-86
2023/07/28 06:18:30;;;;;;;37.67;22.40;;;;;;;19.83;88.63;100537.31;5025970;28;20504;-86
2023/07/28 06:20:56;;;;;;;38.13;22.10;;;;;;;19.87;88.61;100542.28;5018354;28;20079;-86
2023/07/28 06:23:21;;;;;;;42.45;23.63;;;;;;;19.94;87.86;100528.34;5016884;28;20068;-86
2023/07/28 06:25:46;;;;;;;46.45;25.55;;;;;;;19.88;88.11;100538.59;5021557;28;20037;-86
2023/07/28 06:28:12;;;;;;;43.38;24.98;;;;;;;19.86;88.03;100540.59;5014447;28;20076;-86
2023/07/28 06:30:38;;;;;;;40.83;24.55;;;;;;;19.82;88.67;100546.34;5017183;28;20038;-85
2023/07/28 06:33:06;;;;;;;41.85;24.10;;;;;;;19.77;89.32;100552.09;5029509;28;20025;-86
2023/07/28 06:35:33;;;;;;;44.58;24.90;;;;;;;19.76;89.20;100560.25;5029192;28;20034;-86
2023/07/28 06:38:00;;;;;;;41.85;22.30;;;;;;;19.77;88.46;100560.13;5016213;28;20025;-86
2023/07/28 06:40:26;;;;;;;40.42;23.88;;;;;;;19.86;89.21;100561.16;5044438;28;20547;-86
2023/07/28 06:42:51;;;;;;;37.58;22.55;;;;;;;19.97;87.75;100554.94;5033226;28;20124;-85
2023/07/28 06:45:16;;;;;;;35.38;21.40;;;;;;;20.05;87.37;100566.72;5026205;28;20026;-87
2023/07/28 06:47:42;;;;;;;38.35;21.25;;;;;;;20.08;88.12;100563.75;5029995;28;20076;-86
2023/07/28 06:50:08;;;;;;;36.15;20.67;;;;;;;20.14;87.45;100565.06;5018480;28;20063;-86
2023/07/28 06:52:34;;;;;;;35.05;20.13;;;;;;;20.15;86.93;100564.09;5015344;28;20393;-85
2023/07/28 06:54:59;;;;;;;34.53;19.85;;;;;;;20.06;87.61;100565.72;5026514;28;20131;-87
2023/07/28 06:57:24;;;;;;;29.42;17.60;;;;;;;20.09;87.69;100569.97;5015126;28;20078;-86
2023/07/28 06:59:50;;;;;;;32.50;17.38;;;;;;;20.09;86.92;100572.66;5020467;28;20143;-86
2023/07/28 07:02:16;;;;;;;31.40;17.55;;;;;;;20.16;87.05;100564.97;5028518;28;20501;-86
2023/07/28 07:04:42;;;;;;;31.50;18.30;;;;;;;20.31;87.16;100574.38;5018432;28;20053;-85
2023/07/28 07:07:07;;;;;;;29.67;15.90;;;;;;;20.33;86.48;100581.34;5021408;28;20033;-86
2023/07/28 07:09:32;;;;;;;26.88;17.30;;;;;;;20.39;85.48;100580.81;5028180;28;20034;-86
2023/07/28 07:11:57;;;;;;;25.10;16.30;;;;;;;20.41;86.12;100591.41;5034364;28;20021;-87
2023/07/28 07:14:23;;;;;;;30.13;16.60;;;;;;;20.43;85.97;100583.25;5020496;28;20018;-85
2023/07/28 07:16:49;;;;;;;27.77;16.95;;;;;;;20.43;85.19;100588.63;5017634;28;20121;-86
2023/07/28 07:19:15;;;;;;;25.83;15.80;;;;;;;20.43;85.58;100593.97;5027511;28;20523;-86
2023/07/28 07:21:41;;;;;;;24.85;15.43;;;;;;;20.38;86.11;100589.84;5016853;28;20476;-86
2023/07/28 07:24:07;;;;;;;25.00;15.63;;;;;;;20.31;86.14;100593.19;5021850;28;20040;-86
2023/07/28 07:26:32;;;;;;;23.75;14.40;;;;;;;20.34;85.71;100599.16;5015594;28;20045;-85
2023/07/28 07:28:57;;;;;;;20.30;12.88;;;;;;;20.36;85.67;100599.00;5027466;28;20030;-87
2023/07/28 07:31:23;;;;;;;21.40;13.63;;;;;;;20.38;85.45;100603.28;5015849;28;20069;-85
2023/07/28 07:33:48;;;;;;;21.70;13.43;;;;;;;20.41;85.22;100596.78;5026307;28;20071;-87
2023/07/28 07:36:15;;;;;;;22.08;12.55;;;;;;;20.44;85.13;100603.72;5018614;28;20025;-86
2023/07/28 07:38:41;;;;;;;23.27;13.00;;;;;;;20.49;85.28;100607.75;5024571;28;20026;-86
2023/07/28 07:41:08;;;;;;;24.35;14.27;;;;;;;20.49;85.49;100609.59;5020847;28;20026;-87
2023/07/28 07:43:33;;;;;;;20.30;13.27;;;;;;;20.53;85.06;100608.34;5025983;28;20038;-87
2023/07/28 07:45:58;;;;;;;21.63;13.27;;;;;;;20.46;85.05;100607.97;5016904;28;20026;-86
2023/07/28 07:48:24;;;;;;;18.27;11.85;;;;;;;20.43;85.33;100613.63;5029799;28;20033;-87
2023/07/28 07:50:50;;;;;;;17.25;11.50;;;;;;;20.48;84.52;100611.44;5032363;28;20025;-86
2023/07/28 07:53:16;;;;;;;17.02;11.85;;;;;;;20.55;84.89;100617.13;5017779;28;20457;-86
2023/07/28 07:55:41;;;;;;;19.30;12.02;;;;;;;20.61;83.96;100608.53;5033381;28;20036;-86
2023/07/28 07:58:07;;;;;;;18.42;12.10;;;;;;;20.65;84.67;100615.34;5013151;28;20388;-85
2023/07/28 08:00:32;;;;;;;17.92;11.38;;;;;;;20.70;83.35;100613.09;5017088;28;20068;-85
2023/07/28 08:02:57;;;;;;;15.10;10.98;;;;;;;20.68;83.64;100619.63;5024874;28;20017;-85
2023/07/28 08:05:23;;;;;;;13.98;10.68;;;;;;;20.62;83.38;100618.31;5020657;28;20042;-85
2023/07/28 08:07:50;;;;;;;14.10;10.18;;;;;;;20.64;83.39;100622.56;5024515;28;20020;-85
2023/07/28 08:10:15;;;;;;;13.60;10.20;;;;;;;20.60;83.85;100618.41;5022509;28;20033;-86
2023/07/28 08:12:41;;;;;;;15.18;10.68;;;;;;;20.57;84.16;100624.06;5022353;28;20029;-86
2023/07/28 08:15:07;;;;;;;13.05;9.73;;;;;;;20.59;83.86;100627.47;5028090;28;20025;-86
2023/07/28 08:17:32;;;;;;;12.15;9.73;;;;;;;20.68;83.41;100636.56;5024969;28;20045;-85
2023/07/28 08:19:57;;;;;;;14.73;11.32;;;;;;;20.66;83.26;100635.00;5030731;28;20363;-85
2023/07/28 08:22:23;;;;;;;15.05;10.30;;;;;;;20.66;83.00;100630.50;5014160;28;20026;-85
2023/07/28 08:24:48;;;;;;;13.65;10.00;;;;;;;20.71;83.24;100635.47;5024151;28;20025;-86
2023/07/28 08:27:13;;;;;;;13.05;10.27;;;;;;;20.75;83.55;100632.41;5041989;28;20026;-85
2023/07/28 08:29:38;;;;;;;14.70;11.00;;;;;;;20.81;82.35;100633.69;5013228;28;20378;-86
2023/07/28 08:32:04;;;;;;;14.10;10.75;;;;;;;20.82;82.65;100636.25;5017432;28;20037;-85
2023/07/28 08:34:29;;;;;;;15.38;11.30;;;;;;;20.85;82.49;100643.19;5022628;28;20026;-86
2023/07/28 08:36:54;;;;;;;14.20;11.82;;;;;;;20.76;81.89;100639.47;5026250;28;20312;-86
2023/07/28 08:39:20;;;;;;;16.67;12.20;;;;;;;20.77;82.05;100641.16;5015113;28;20034;-85
2023/07/28 08:41:45;;;;;;;15.13;11.70;;;;;;;20.76;82.54;100652.91;5015872;28;20385;-86
2023/07/28 08:44:11;;;;;;;11.85;9.93;;;;;;;20.78;82.25;100648.22;5023628;28;20433;-85
2023/07/28 08:46:37;;;;;;;14.45;11.18;;;;;;;20.82;82.03;100646.97;5012836;28;20026;-85
2023/07/28 08:49:02;;;;;;;16.95;11.23;;;;;;;20.91;82.20;100647.19;5031998;28;20032;-86
2023/07/28 08:51:29;;;;;;;12.82;10.57;;;;;;;21.03;81.23;100654.16;5011668;28;20053;-85
2023/07/28 08:53:54;;;;;;;13.18;10.48;;;;;;;21.14;80.89;100651.41;5020149;28;20042;-85
2023/07/28 08:56:20;;;;;;;12.18;10.88;;;;;;;21.32;80.65;100657.88;5023948;28;20030;-84
2023/07/28 08:58:45;;;;;;;10.18;9.18;;;;;;;21.42;78.81;100644.47;5019715;28;20408;-85
2023/07/28 09:01:12;;;;;;;10.73;9.18;;;;;;;21.56;78.24;100654.00;5015018;28;20025;-86
2023/07/28 09:03:41;;;;;;;9.50;8.60;;;;;;;21.69;78.09;100653.78;5023805;28;20025;-86
2023/07/28 09:06:08;;;;;;;9.32;8.43;;;;;;;21.82;77.75;100654.34;5017376;28;20033;-86
2023/07/28 09:08:35;;;;;;;8.55;7.75;;;;;;;21.88;77.11;100648.44;5014930;28;20034;-85
2023/07/28 09:11:05;;;;;;;8.85;7.95;;;;;;;21.95;76.45;100644.16;5020308;28;20035;-85
2023/07/28 09:13:41;;;;;;;8.50;7.60;;;;;;;22.03;76.84;100647.03;5015175;28;20481;-85
2023/07/28 09:16:17;;;;;;;8.32;7.53;;;;;;;22.18;76.52;100652.88;5020810;28;20038;-85
2023/07/28 09:18:43;;;;;;;8.43;7.63;;;;;;;22.26;75.83;100654.88;5014780;28;20010;-85
2023/07/28 09:21:17;;;;;;;8.63;7.72;;;;;;;22.33;76.23;100656.81;5018044;28;20044;-85
2023/07/28 09:23:42;;;;;;;8.32;7.53;;;;;;;22.45;75.64;100660.25;5017672;28;20037;-85
2023/07/28 09:26:08;;;;;;;8.73;7.80;;;;;;;22.72;75.88;100658.66;5023258;28;20033;-85
2023/07/28 09:28:38;;;;;;;8.95;8.07;;;;;;;22.87;74.45;100655.34;5031274;28;20087;-82
2023/07/28 09:31:04;;;;;;;9.70;8.77;;;;;;;23.05;74.39;100663.56;5010803;28;20061;-84
2023/07/28 09:33:31;;;;;;;8.73;7.88;;;;;;;23.14;71.91;100667.25;5021990;28;20021;-83
2023/07/28 09:35:57;;;;;;;8.60;7.70;;;;;;;23.21;70.94;100664.78;5014122;28;20045;-84
2023/07/28 09:38:27;;;;;;;8.40;7.38;;;;;;;23.17;71.62;100666.94;5020065;28;20044;-85
2023/07/28 09:40:54;;;;;;;7.90;7.13;;;;;;;23.09;71.55;100656.03;5013050;28;20092;-84
2023/07/28 09:43:19;;;;;;;7.85;7.05;;;;;;;23.14;71.87;100656.47;5018279;28;20038;-84
2023/07/28 09:45:46;;;;;;;7.97;7.18;;;;;;;23.36;71.26;100660.59;5014723;28;20029;-84
2023/07/28 09:48:13;;;;;;;8.02;7.22;;;;;;;23.64;70.22;100656.09;5020761;28;20443;-85
2023/07/28 09:50:41;;;;;;;8.63;7.72;;;;;;;23.77;69.52;100655.75;5012094;28;20133;-83
2023/07/28 09:53:09;;;;;;;8.75;7.85;;;;;;;23.98;68.30;100653.63;5024611;28;20047;-83
2023/07/28 09:55:35;;;;;;;8.45;7.68;;;;;;;24.19;69.02;100659.56;5027366;28;20068;-84
2023/07/28 09:58:04;;;;;;;8.85;8.05;;;;;;;24.18;68.43;100659.72;5025378;28;20681;-84
2023/07/28 10:00:30;;;;;;;9.77;8.80;;;;;;;24.12;67.02;100655.78;5022126;28;20147;-84
2023/07/28 10:02:58;;;;;;;7.53;6.82;;;;;;;24.21;66.90;100661.28;5030769;28;20414;-84
2023/07/28 10:05:24;;;;;;;6.75;6.05;;;;;;;24.33;65.80;100658.16;5022879;28;20026;-84
2023/07/28 10:07:50;;;;;;;7.00;6.28;;;;;;;24.56;65.55;100658.56;5016243;28;20127;-84
2023/07/28 10:10:17;;;;;;;7.35;6.75;;;;;;;24.86;67.23;100660.00;5015221;28;20065;-84
2023/07/28 10:12:55;;;;;;;6.72;6.13;;;;;;;24.70;65.67;100670.69;5039173;28;20022;-84
2023/07/28 10:15:27;;;;;;;5.68;5.18;;;;;;;24.38;64.96;100661.28;5018967;28;20590;-84
2023/07/28 10:17:57;;;;;;;;;;;;;;;24.60;66.41;100664.53;5026478;28;20033;-83
2023/07/28 10:20:40;;;;;;;5.82;4.32;;;;;;;24.50;65.41;100663.78;5018788;28;20388;-84
2023/07/28 10:23:12;;;;;;;;;;;;;;;24.62;65.90;100663.38;5013939;28;20452;-84
2023/07/28 10:25:38;;;;;;;;;;;;;;;24.50;66.11;100669.19;5021413;28;19920;-82
2023/07/28 10:28:05;;;;;;;5.03;4.63;;;;;;;24.37;66.51;100662.31;5026820;28;19920;-84
2023/07/28 10:30:37;;;;;;;4.90;4.60;;;;;;;24.29;65.83;100667.59;5033040;28;20028;-83
2023/07/28 10:33:02;;;;;;;;;;;;;;;24.54;67.16;100671.41;5027313;28;20034;-83
2023/07/28 10:35:30;;;;;;;5.00;4.60;;;;;;;24.49;66.50;100667.47;5035061;28;20259;-84
2023/07/28 10:37:56;;;;;;;7.75;5.20;;;;;;;24.58;64.75;100663.84;5021194;28;20112;-84
2023/07/28 10:40:29;;;;;;;5.72;5.32;;;;;;;24.79;64.47;100664.31;5030857;28;20433;-83
2023/07/28 10:42:55;;;;;;;7.97;6.35;;;;;;;24.91;63.75;100663.06;5016960;28;20041;-83
2023/07/28 10:45:28;;;;;;;5.45;4.90;;;;;;;25.23;63.07;100666.16;5034168;28;20101;-84
2023/07/28 10:47:56;;;;;;;5.30;4.80;;;;;;;25.30;62.10;100662.66;5026035;28;20041;-83
2023/07/28 10:50:23;;;;;;;4.65;4.35;;;;;;;25.55;61.03;100662.75;5033466;28;20025;-83
2023/07/28 10:52:48;;;;;;;4.82;4.43;;;;;;;25.67;59.59;100670.41;5023958;28;20057;-83
2023/07/28 10:55:22;;;;;;;5.18;4.78;;;;;;;25.79;62.15;100665.59;5032286;28;20503;-83
2023/07/28 10:57:49;;;;;;;4.53;3.58;;;;;;;26.14;58.39;100667.19;5023752;28;20095;-83
2023/07/28 11:00:16;;;;;;;3.17;2.97;;;;;;;26.47;57.18;100661.81;5020269;28;20396;-83
2023/07/28 11:02:43;;;;;;;2.42;2.20;;;;;;;26.53;55.04;100663.00;5033932;28;20032;-83
2023/07/28 11:05:14;;;;;;;2.20;2.10;;;;;;;26.59;55.89;100652.34;5023437;28;20087;-83
2023/07/28 11:07:43;;;;;;;1.88;1.77;;;;;;;26.78;56.02;100659.28;5017419;28;20046;-82
2023/07/28 11:10:11;;;;;;;1.95;1.80;;;;;;;27.54;55.00;100652.47;5016842;28;20029;-83
2023/07/28 11:12:39;;;;;;;2.05;1.95;;;;;;;27.75;53.13;100651.91;5016836;28;20027;-82